Time;durP1;ratioP1;P1;durP2;ratioP2;P2;SDS_P1;SDS_P2;PMS_P1;PMS_P2;Temp;Humidity;BMP_temperature;BMP_pressure;BME280_temperature;BME280_humidity;BME280_pressure;Samples;Min_cycle;Max_cycle;Signal;HPM_P1;HPM_P2
2023/01/31 00:00:11;;;;;;;47.22;5.13;;;;;;;;;;4984798;28;20509;-74
2023/01/31 00:02:36;;;;;;;41.58;5.22;;;;;;;;;;5003316;28;20119;-76
2023/01/31 00:05:04;;;;;;;51.40;5.95;;;;;;;;;;5000910;28;20092;-74
2023/01/31 00:07:31;;;;;;;52.50;7.35;;;;;;;;;;5000683;28;20022;-75
2023/01/31 00:09:59;;;;;;;48.25;6.10;;;;;;;;;;5002733;28;20391;-74
2023/01/31 00:12:26;;;;;;;41.50;6.10;;;;;;;;;;5002333;28;20399;-74
2023/01/31 00:14:51;;;;;;;42.70;7.30;;;;;;;;;;5000530;28;20026;-73
2023/01/31 00:17:20;;;;;;;48.78;6.57;;;;;;;;;;5001716;28;20192;-75
2023/01/31 00:19:45;;;;;;;43.67;6.13;;;;;;;;;;5002011;28;20026;-74
2023/01/31 00:22:10;;;;;;;49.40;6.13;;;;;;;;;;5001115;28;20030;-75
2023/01/31 00:24:38;;;;;;;33.83;4.57;;;;;;;;;;5001894;28;20065;-74
2023/01/31 00:27:03;;;;;;;33.63;6.05;;;;;;;;;;5001239;28;20423;-74
2023/01/31 00:29:29;;;;;;;48.65;6.28;;;;;;;;;;5000666;28;20219;-75
2023/01/31 00:31:56;;;;;;;52.72;5.90;;;;;;;;;;5002792;28;20030;-75
2023/01/31 00:34:22;;;;;;;56.00;7.15;;;;;;;;;;5002467;28;20037;-75
2023/01/31 00:36:47;;;;;;;39.20;5.68;;;;;;;;;;5000741;28;20030;-75
2023/01/31 00:39:12;;;;;;;45.78;6.93;;;;;;;;;;5001944;28;20546;-74
2023/01/31 00:41:38;;;;;;;51.55;6.53;;;;;;;;;;5000472;28;20025;-75
2023/01/31 00:44:04;;;;;;;45.00;5.50;;;;;;;;;;5001582;28;20053;-75
2023/01/31 00:46:29;;;;;;;47.85;6.63;;;;;;;;;;5003384;28;20022;-75
2023/01/31 00:48:55;;;;;;;44.25;6.22;;;;;;;;;;5005430;28;20033;-74
2023/01/31 00:51:21;;;;;;;46.50;6.22;;;;;;;;;;5006009;28;20053;-75
2023/01/31 00:53:46;;;;;;;48.42;6.82;;;;;;;;;;5005658;28;20026;-75
2023/01/31 00:56:13;;;;;;;46.47;6.65;;;;;;;;;;5005990;28;20176;-71
2023/01/31 00:58:39;;;;;;;56.83;7.72;;;;;;;;;;5003966;28;20297;-75
2023/01/31 01:01:08;;;;;;;54.17;8.25;;;;;;;;;;5004450;28;20458;-75
2023/01/31 01:03:37;;;;;;;58.95;7.40;;;;;;;;;;5005530;28;20037;-75
2023/01/31 01:06:06;;;;;;;45.90;7.03;;;;;;;;;;5004804;28;20033;-74
2023/01/31 01:08:31;;;;;;;48.33;7.25;;;;;;;;;;5003749;28;20033;-75
2023/01/31 01:11:03;;;;;;;57.72;8.48;;;;;;;;;;5005162;28;20026;-74
2023/01/31 01:13:28;;;;;;;56.20;7.70;;;;;;;;;;5005183;28;20088;-74
2023/01/31 01:15:53;;;;;;;50.10;7.70;;;;;;;;;;5005550;28;20034;-75
2023/01/31 01:18:18;;;;;;;40.35;7.28;;;;;;;;;;5004349;28;20041;-76
2023/01/31 01:20:44;;;;;;;55.03;7.57;;;;;;;;;;5003914;28;20053;-75
2023/01/31 01:23:09;;;;;;;46.90;7.82;;;;;;;;;;5005087;28;20624;-75
2023/01/31 01:25:43;;;;;;;47.33;8.20;;;;;;;;;;5003981;28;20105;-75
2023/01/31 01:28:09;;;;;;;46.55;7.55;;;;;;;;;;5003093;28;20018;-75
2023/01/31 01:30:36;;;;;;;45.78;6.68;;;;;;;;;;5005440;28;20495;-75
2023/01/31 01:33:04;;;;;;;56.13;7.95;;;;;;;;;;5003010;28;20022;-75
2023/01/31 01:35:29;;;;;;;61.03;8.20;;;;;;;;;;5004768;28;20025;-75
2023/01/31 01:37:55;;;;;;;49.00;6.47;;;;;;;;;;5004917;28;20026;-75
2023/01/31 01:40:22;;;;;;;59.97;8.18;;;;;;;;;;5002893;28;20040;-75
2023/01/31 01:42:47;;;;;;;51.30;7.72;;;;;;;;;;5005153;28;20105;-75
2023/01/31 01:45:14;;;;;;;42.63;7.15;;;;;;;;;;5002849;28;20029;-74
2023/01/31 01:47:45;;;;;;;50.15;7.53;;;;;;;;;;5000441;28;20037;-74
2023/01/31 01:50:11;;;;;;;49.63;6.90;;;;;;;;;;5003280;28;20038;-74
2023/01/31 01:52:48;;;;;;;46.80;6.72;;;;;;;;;;5003424;28;20561;-74
2023/01/31 01:55:17;;;;;;;53.63;7.53;;;;;;;;;;5003770;28;20038;-74
2023/01/31 01:57:43;;;;;;;53.92;8.80;;;;;;;;;;5001518;28;20084;-75
2023/01/31 02:00:13;;;;;;;57.85;7.93;;;;;;;;;;5003037;28;20113;-74
2023/01/31 02:02:42;;;;;;;55.40;7.43;;;;;;;;;;5002728;28;20056;-75
2023/01/31 02:05:11;;;;;;;53.30;7.57;;;;;;;;;;5004045;28;20446;-75
2023/01/31 02:07:39;;;;;;;44.15;7.78;;;;;;;;;;5002269;28;20458;-75
2023/01/31 02:10:16;;;;;;;48.00;7.15;;;;;;;;;;4986258;28;20113;-75
2023/01/31 02:12:41;;;;;;;54.15;7.70;;;;;;;;;;5002830;28;20053;-75
2023/01/31 02:15:07;;;;;;;55.47;7.97;;;;;;;;;;5004458;28;20085;-75
2023/01/31 02:17:32;;;;;;;44.70;7.00;;;;;;;;;;5002468;28;20037;-75
2023/01/31 02:20:10;;;;;;;57.97;8.05;;;;;;;;;;5002992;28;20030;-75
2023/01/31 02:22:39;;;;;;;40.63;7.47;;;;;;;;;;5003956;28;20176;-75
2023/01/31 02:25:23;;;;;;;47.42;6.10;;;;;;;;;;5001862;28;20434;-75
2023/01/31 02:28:07;;;;;;;47.63;8.00;;;;;;;;;;5001865;28;20490;-71
2023/01/31 02:30:51;;;;;;;56.78;7.55;;;;;;;;;;5001914;28;20037;-70
2023/01/31 02:33:35;;;;;;;47.95;6.95;;;;;;;;;;5003820;28;20113;-71
2023/01/31 02:36:00;;;;;;;51.05;6.85;;;;;;;;;;5003825;28;20033;-71
2023/01/31 02:38:50;;;;;;;44.35;6.63;;;;;;;;;;5003938;28;20042;-72
2023/01/31 02:41:25;;;;;;;43.17;7.28;;;;;;;;;;5004331;28;20018;-72
2023/01/31 02:46:39;;;;;;;47.17;6.78;;;;;;;;;;5000094;28;20033;-71
2023/01/31 02:49:35;;;;;;;47.05;7.05;;;;;;;;;;5003748;28;20395;-70
2023/01/31 02:52:20;;;;;;;43.00;7.43;;;;;;;;;;5001369;28;20038;-71
2023/01/31 02:57:46;;;;;;;59.35;8.73;;;;;;;;;;5002823;28;20046;-74
2023/01/31 03:00:12;;;;;;;44.35;6.32;;;;;;;;;;5001937;28;20038;-71
2023/01/31 03:02:40;;;;;;;54.47;9.60;;;;;;;;;;5003399;28;20029;-71
2023/01/31 03:05:05;;;;;;;49.47;8.63;;;;;;;;;;5001765;28;20084;-70
2023/01/31 03:07:33;;;;;;;41.22;6.68;;;;;;;;;;4985689;28;20048;-71
2023/01/31 03:10:08;;;;;;;52.22;8.02;;;;;;;;;;5001971;28;20121;-71
2023/01/31 03:12:40;;;;;;;56.00;7.82;;;;;;;;;;5001747;28;20045;-70
2023/01/31 03:15:05;;;;;;;51.55;8.23;;;;;;;;;;5001790;28;20108;-70
2023/01/31 03:17:36;;;;;;;56.47;7.85;;;;;;;;;;5001515;28;20494;-71
2023/01/31 03:20:08;;;;;;;50.75;8.50;;;;;;;;;;5001301;28;20026;-70
2023/01/31 03:22:35;;;;;;;52.35;7.13;;;;;;;;;;5001206;28;20173;-71
2023/01/31 03:25:02;;;;;;;47.70;7.05;;;;;;;;;;5002642;28;20524;-70
2023/01/31 03:27:27;;;;;;;45.55;7.40;;;;;;;;;;5001739;28;20133;-70
2023/01/31 03:29:55;;;;;;;62.78;8.07;;;;;;;;;;5002400;28;20030;-70
2023/01/31 03:32:23;;;;;;;50.28;7.00;;;;;;;;;;4991829;28;20507;-74
2023/01/31 03:34:50;;;;;;;47.65;7.15;;;;;;;;;;4957805;28;20030;-74
2023/01/31 03:37:18;;;;;;;53.15;8.05;;;;;;;;;;4982214;28;20050;-75
2023/01/31 03:39:55;;;;;;;52.25;7.72;;;;;;;;;;4983029;28;20440;-74
2023/01/31 03:42:25;;;;;;;45.15;7.82;;;;;;;;;;4963687;28;20482;-74
2023/01/31 03:45:10;;;;;;;64.53;8.15;;;;;;;;;;4969225;28;20123;-73
2023/01/31 03:47:37;;;;;;;53.70;8.15;;;;;;;;;;4998806;28;20080;-74
2023/01/31 03:50:07;;;;;;;52.90;8.00;;;;;;;;;;4984659;28;20103;-74
2023/01/31 03:52:37;;;;;;;50.83;8.90;;;;;;;;;;5000180;28;20065;-72
2023/01/31 03:55:23;;;;;;;47.83;8.07;;;;;;;;;;5002931;28;20038;-74
2023/01/31 03:57:50;;;;;;;42.22;7.00;;;;;;;;;;5000049;28;20093;-75
2023/01/31 04:00:17;;;;;;;50.35;7.43;;;;;;;;;;5002854;28;20145;-75
2023/01/31 04:02:43;;;;;;;36.58;7.07;;;;;;;;;;5001846;28;20390;-75
2023/01/31 04:05:08;;;;;;;42.65;6.82;;;;;;;;;;5002690;28;20034;-74
2023/01/31 04:07:34;;;;;;;54.15;7.35;;;;;;;;;;5002429;28;20034;-75
2023/01/31 04:10:00;;;;;;;47.60;7.13;;;;;;;;;;5002358;28;20207;-75
2023/01/31 04:12:29;;;;;;;37.83;6.38;;;;;;;;;;5002668;28;20056;-75
2023/01/31 04:14:55;;;;;;;46.10;8.05;;;;;;;;;;5002379;28;20030;-74
2023/01/31 04:17:22;;;;;;;43.63;7.13;;;;;;;;;;5000372;28;20567;-74
2023/01/31 04:19:47;;;;;;;42.47;5.80;;;;;;;;;;5001806;28;20129;-74
2023/01/31 04:22:12;;;;;;;57.75;8.38;;;;;;;;;;5006638;28;20072;-71
2023/01/31 04:24:38;;;;;;;41.55;7.45;;;;;;;;;;5004883;28;20422;-70
2023/01/31 04:27:03;;;;;;;40.13;7.18;;;;;;;;;;5007004;28;20120;-71
2023/01/31 04:29:28;;;;;;;40.63;6.47;;;;;;;;;;5004997;28;20033;-71
2023/01/31 04:31:53;;;;;;;43.95;6.45;;;;;;;;;;5006518;28;20062;-71
2023/01/31 04:34:19;;;;;;;36.35;6.00;;;;;;;;;;5004255;28;20036;-70
2023/01/31 04:36:44;;;;;;;36.80;6.30;;;;;;;;;;5006236;28;20249;-70
2023/01/31 04:39:10;;;;;;;43.45;6.28;;;;;;;;;;5005721;28;20391;-71
2023/01/31 04:41:35;;;;;;;44.60;7.32;;;;;;;;;;5005851;28;20022;-71
2023/01/31 04:44:00;;;;;;;34.00;5.28;;;;;;;;;;5004138;28;20030;-71
2023/01/31 04:46:28;;;;;;;35.33;5.25;;;;;;;;;;4992409;28;20060;-76
2023/01/31 04:48:53;;;;;;;48.72;7.53;;;;;;;;;;5005702;28;20025;-72
2023/01/31 04:51:18;;;;;;;47.88;7.15;;;;;;;;;;5006166;28;20026;-71
2023/01/31 04:53:44;;;;;;;37.38;5.82;;;;;;;;;;5004146;28;20113;-71
2023/01/31 04:56:09;;;;;;;31.77;5.53;;;;;;;;;;5006236;28;20061;-71
2023/01/31 04:58:35;;;;;;;51.35;6.38;;;;;;;;;;5006235;28;20057;-71
2023/01/31 05:01:00;;;;;;;43.72;6.85;;;;;;;;;;5005577;28;20295;-71
2023/01/31 05:03:25;;;;;;;42.47;5.65;;;;;;;;;;5004081;28;20061;-71
2023/01/31 05:05:50;;;;;;;39.25;6.60;;;;;;;;;;5003348;28;20053;-71
2023/01/31 05:08:16;;;;;;;40.60;6.25;;;;;;;;;;5005826;28;20057;-70
2023/01/31 05:10:44;;;;;;;40.25;6.40;;;;;;;;;;5003733;28;20026;-72
2023/01/31 05:13:10;;;;;;;42.10;6.18;;;;;;;;;;5005935;28;20033;-70
2023/01/31 05:15:38;;;;;;;49.40;6.90;;;;;;;;;;5003563;28;20096;-70
2023/01/31 05:18:03;;;;;;;30.30;6.03;;;;;;;;;;5003881;28;20053;-70
2023/01/31 05:20:35;;;;;;;39.38;5.53;;;;;;;;;;5005195;28;20062;-70
2023/01/31 05:23:00;;;;;;;40.90;7.22;;;;;;;;;;5005978;28;20025;-71
2023/01/31 05:25:29;;;;;;;38.17;6.10;;;;;;;;;;5003843;28;20030;-71
2023/01/31 05:27:55;;;;;;;46.53;6.30;;;;;;;;;;5003689;28;20030;-71
2023/01/31 05:30:23;;;;;;;49.67;6.75;;;;;;;;;;5003272;28;20092;-71
2023/01/31 05:32:48;;;;;;;39.88;5.80;;;;;;;;;;5003339;28;20513;-71
2023/01/31 05:35:16;;;;;;;42.20;6.40;;;;;;;;;;5003437;28;20053;-70
2023/01/31 05:37:43;;;;;;;41.10;5.88;;;;;;;;;;5004685;28;20045;-72
2023/01/31 05:40:09;;;;;;;58.30;6.75;;;;;;;;;;5003561;28;20030;-72
2023/01/31 05:42:34;;;;;;;42.75;6.53;;;;;;;;;;5004729;28;20026;-71
2023/01/31 05:45:00;;;;;;;43.22;6.68;;;;;;;;;;4994029;28;20166;-71
2023/01/31 05:47:25;;;;;;;40.50;5.90;;;;;;;;;;4997257;28;20049;-71
2023/01/31 05:49:50;;;;;;;48.58;7.78;;;;;;;;;;4987568;28;20030;-71
2023/01/31 05:52:16;;;;;;;46.65;6.88;;;;;;;;;;5002906;28;20040;-71
2023/01/31 05:54:41;;;;;;;38.97;6.80;;;;;;;;;;5004998;28;20018;-71
2023/01/31 05:57:07;;;;;;;41.30;6.38;;;;;;;;;;5004650;28;22596;-72
2023/01/31 05:59:32;;;;;;;33.00;4.75;;;;;;;;;;5002555;28;20049;-72
2023/01/31 06:01:57;;;;;;;33.78;6.05;;;;;;;;;;5004637;28;20057;-72
2023/01/31 06:04:23;;;;;;;33.70;5.55;;;;;;;;;;5002435;28;20117;-72
2023/01/31 06:06:50;;;;;;;36.22;5.93;;;;;;;;;;4986509;28;20057;-73
2023/01/31 06:09:18;;;;;;;34.45;5.75;;;;;;;;;;5004140;28;20432;-75
2023/01/31 06:11:43;;;;;;;31.48;5.07;;;;;;;;;;5004159;28;20495;-75
2023/01/31 06:14:09;;;;;;;54.05;7.03;;;;;;;;;;5003238;28;20018;-74
2023/01/31 06:16:34;;;;;;;33.58;5.93;;;;;;;;;;5002684;28;20044;-74
2023/01/31 06:19:00;;;;;;;42.15;5.88;;;;;;;;;;5003041;28;20046;-76
2023/01/31 06:21:26;;;;;;;46.92;5.65;;;;;;;;;;5003429;28;20088;-74
2023/01/31 06:23:52;;;;;;;54.40;6.47;;;;;;;;;;5002617;28;20141;-75
2023/01/31 06:26:17;;;;;;;34.50;5.60;;;;;;;;;;5002953;28;20022;-74
2023/01/31 06:28:42;;;;;;;51.08;6.20;;;;;;;;;;4985896;28;20057;-76
2023/01/31 06:31:08;;;;;;;44.90;6.10;;;;;;;;;;5003994;28;20030;-74
2023/01/31 06:33:33;;;;;;;52.15;7.25;;;;;;;;;;5003734;28;20506;-74
2023/01/31 06:35:59;;;;;;;40.78;5.28;;;;;;;;;;5004048;28;20041;-74
2023/01/31 06:38:24;;;;;;;34.70;4.95;;;;;;;;;;5001863;28;20030;-74
2023/01/31 06:40:50;;;;;;;37.08;6.20;;;;;;;;;;5002573;28;20026;-75
2023/01/31 06:43:15;;;;;;;43.33;6.28;;;;;;;;;;5003939;28;20124;-74
2023/01/31 06:45:41;;;;;;;36.38;6.28;;;;;;;;;;4988506;28;20034;-76
2023/01/31 06:48:06;;;;;;;43.20;6.82;;;;;;;;;;5002035;28;20172;-74
2023/01/31 06:50:32;;;;;;;43.10;6.38;;;;;;;;;;5002251;28;20092;-75
2023/01/31 06:52:58;;;;;;;37.22;6.32;;;;;;;;;;5003515;28;20045;-73
2023/01/31 06:55:23;;;;;;;43.05;6.97;;;;;;;;;;5001886;28;20483;-71
2023/01/31 06:57:49;;;;;;;39.63;6.28;;;;;;;;;;5003281;28;20054;-70
2023/01/31 07:00:15;;;;;;;41.95;7.10;;;;;;;;;;4985646;28;20277;-71
2023/01/31 07:02:40;;;;;;;58.25;8.98;;;;;;;;;;5002893;28;20598;-72
2023/01/31 07:05:05;;;;;;;45.47;7.53;;;;;;;;;;5002095;28;20030;-71
2023/01/31 07:07:31;;;;;;;59.35;8.80;;;;;;;;;;5002023;28;22887;-70
2023/01/31 07:09:56;;;;;;;56.58;7.20;;;;;;;;;;5001648;28;20471;-71
2023/01/31 07:12:21;;;;;;;64.75;8.85;;;;;;;;;;5002216;28;20054;-70
2023/01/31 07:14:46;;;;;;;47.00;6.95;;;;;;;;;;5001331;28;20515;-72
2023/01/31 07:17:14;;;;;;;51.20;8.13;;;;;;;;;;5003291;28;20064;-72
2023/01/31 07:19:39;;;;;;;50.60;7.13;;;;;;;;;;5003056;28;20030;-72
2023/01/31 07:22:05;;;;;;;44.28;7.60;;;;;;;;;;5001164;28;20442;-72
2023/01/31 07:24:30;;;;;;;50.53;7.22;;;;;;;;;;5000885;28;20418;-72
2023/01/31 07:26:55;;;;;;;57.83;7.18;;;;;;;;;;4985216;28;20036;-72
2023/01/31 07:29:23;;;;;;;53.78;7.00;;;;;;;;;;5000845;28;20431;-72
2023/01/31 07:31:48;;;;;;;45.17;6.88;;;;;;;;;;5003142;28;20079;-72
2023/01/31 07:34:13;;;;;;;46.47;6.50;;;;;;;;;;5002516;28;20544;-73
2023/01/31 07:36:39;;;;;;;47.85;6.43;;;;;;;;;;5003703;28;20037;-73
2023/01/31 07:39:05;;;;;;;63.20;8.45;;;;;;;;;;5002499;28;20034;-73
2023/01/31 07:41:32;;;;;;;47.55;7.03;;;;;;;;;;5002937;28;20042;-73
2023/01/31 07:44:00;;;;;;;47.70;6.68;;;;;;;;;;4998336;28;20025;-73
2023/01/31 07:46:25;;;;;;;41.42;6.30;;;;;;;;;;4987320;28;20117;-71
2023/01/31 07:48:51;;;;;;;51.50;6.93;;;;;;;;;;5001156;28;20121;-71
2023/01/31 07:51:16;;;;;;;57.58;7.30;;;;;;;;;;5001382;28;20532;-72
2023/01/31 07:53:44;;;;;;;45.88;7.55;;;;;;;;;;5000628;28;20118;-73
2023/01/31 07:56:09;;;;;;;48.65;6.25;;;;;;;;;;5001810;28;20073;-73
2023/01/31 07:58:35;;;;;;;41.53;7.55;;;;;;;;;;5002812;28;20092;-72
2023/01/31 08:03:44;;;;;;;49.20;7.55;;;;;;;;;;5003478;28;20037;-74
2023/01/31 08:06:10;;;;;;;36.63;6.35;;;;;;;;;;5001860;28;20030;-75
2023/01/31 08:08:36;;;;;;;54.83;6.88;;;;;;;;;;5001484;28;20030;-72
2023/01/31 08:11:04;;;;;;;52.85;8.15;;;;;;;;;;5003346;28;20092;-74
2023/01/31 08:13:30;;;;;;;65.07;7.95;;;;;;;;;;5000785;28;20380;-75
2023/01/31 08:15:55;;;;;;;62.90;7.68;;;;;;;;;;5001445;28;20172;-75
2023/01/31 08:18:20;;;;;;;49.50;7.38;;;;;;;;;;5002359;28;20096;-74
2023/01/31 08:20:46;;;;;;;54.30;7.47;;;;;;;;;;5001274;28;20045;-74
2023/01/31 08:23:11;;;;;;;51.65;7.82;;;;;;;;;;5000973;28;20517;-74
2023/01/31 08:25:36;;;;;;;56.55;7.18;;;;;;;;;;5003241;28;20034;-77
2023/01/31 08:28:01;;;;;;;62.85;8.95;;;;;;;;;;5002255;28;20026;-74
2023/01/31 08:30:30;;;;;;;53.60;7.60;;;;;;;;;;5003185;28;20034;-75
2023/01/31 08:32:55;;;;;;;56.47;8.25;;;;;;;;;;5002674;28;20034;-75
2023/01/31 08:35:21;;;;;;;54.55;7.57;;;;;;;;;;5002648;28;20113;-74
2023/01/31 08:37:46;;;;;;;57.42;8.25;;;;;;;;;;5002372;28;20038;-75
2023/01/31 08:40:14;;;;;;;47.45;6.55;;;;;;;;;;5002910;28;20033;-75
2023/01/31 08:42:39;;;;;;;52.40;8.27;;;;;;;;;;5002221;28;20022;-75
2023/01/31 08:45:05;;;;;;;54.05;8.07;;;;;;;;;;4989534;28;20031;-74
2023/01/31 08:47:31;;;;;;;53.25;8.25;;;;;;;;;;4995254;28;20037;-71
2023/01/31 08:49:56;;;;;;;59.22;8.93;;;;;;;;;;5002662;28;20033;-71
2023/01/31 08:52:22;;;;;;;61.58;8.40;;;;;;;;;;5002145;28;20110;-72
2023/01/31 08:54:52;;;;;;;53.75;9.77;;;;;;;;;;5000618;28;20084;-72
2023/01/31 08:57:19;;;;;;;72.10;9.45;;;;;;;;;;5002055;28;20049;-72
2023/01/31 08:59:45;;;;;;;70.28;9.07;;;;;;;;;;5002464;28;20197;-72
2023/01/31 09:02:10;;;;;;;61.33;8.45;;;;;;;;;;5002819;28;20037;-71
2023/01/31 09:04:38;;;;;;;55.50;9.38;;;;;;;;;;5000326;28;20064;-72
2023/01/31 09:07:03;;;;;;;44.92;7.63;;;;;;;;;;5005418;28;20113;-71
2023/01/31 09:09:28;;;;;;;54.20;9.13;;;;;;;;;;5005235;28;20034;-72
2023/01/31 09:11:54;;;;;;;48.00;7.25;;;;;;;;;;4987248;28;20270;-74
2023/01/31 09:14:21;;;;;;;37.60;6.15;;;;;;;;;;5003890;28;20026;-73
2023/01/31 09:16:47;;;;;;;54.75;8.68;;;;;;;;;;4987696;28;20243;-75
2023/01/31 09:19:12;;;;;;;53.38;7.47;;;;;;;;;;5005052;28;20018;-74
2023/01/31 09:21:37;;;;;;;53.47;8.50;;;;;;;;;;5004214;28;20026;-75
2023/01/31 09:24:03;;;;;;;43.70;7.90;;;;;;;;;;5003647;28;20014;-76
2023/01/31 09:26:31;;;;;;;50.25;7.75;;;;;;;;;;5005496;28;20475;-75
2023/01/31 09:28:57;;;;;;;46.08;8.27;;;;;;;;;;5004171;28;20095;-74
2023/01/31 09:31:23;;;;;;;57.08;9.07;;;;;;;;;;5005531;28;20387;-74
2023/01/31 09:33:48;;;;;;;43.47;7.00;;;;;;;;;;5003649;28;20048;-75
2023/01/31 09:36:17;;;;;;;56.28;7.93;;;;;;;;;;5005574;28;20022;-74
2023/01/31 09:38:45;;;;;;;46.80;8.02;;;;;;;;;;5003145;28;20716;-73
2023/01/31 09:41:31;;;;;;;46.22;7.22;;;;;;;;;;5004058;28;20120;-75
2023/01/31 09:44:09;;;;;;;58.03;7.95;;;;;;;;;;4992017;28;20410;-75
2023/01/31 09:46:38;;;;;;;43.55;7.40;;;;;;;;;;4993030;28;20045;-75
2023/01/31 09:49:05;;;;;;;58.30;7.85;;;;;;;;;;5003312;28;20029;-72
2023/01/31 09:51:32;;;;;;;52.90;8.57;;;;;;;;;;5005230;28;20376;-71
2023/01/31 09:53:59;;;;;;;59.53;7.63;;;;;;;;;;4987023;28;20490;-72
2023/01/31 09:56:33;;;;;;;50.50;7.25;;;;;;;;;;5004976;28;20064;-72
2023/01/31 09:59:01;;;;;;;52.85;7.40;;;;;;;;;;5003343;28;20046;-72
2023/01/31 10:01:32;;;;;;;47.67;6.80;;;;;;;;;;5004656;28;20038;-73
2023/01/31 10:04:08;;;;;;;38.67;6.67;;;;;;;;;;5004368;28;20058;-72
2023/01/31 10:06:45;;;;;;;44.80;5.85;;;;;;;;;;5004792;28;20084;-71
2023/01/31 10:09:15;;;;;;;43.42;6.50;;;;;;;;;;5004409;28;20029;-71
2023/01/31 10:11:50;;;;;;;40.85;6.63;;;;;;;;;;4986392;28;20038;-72
2023/01/31 10:14:18;;;;;;;50.42;6.82;;;;;;;;;;5004253;28;20038;-73
2023/01/31 10:16:56;;;;;;;38.60;5.95;;;;;;;;;;5002450;28;20498;-72
2023/01/31 10:19:24;;;;;;;46.92;7.10;;;;;;;;;;4986459;28;20410;-71
2023/01/31 10:21:52;;;;;;;35.97;5.97;;;;;;;;;;5004712;28;20026;-72
2023/01/31 10:24:27;;;;;;;41.17;6.25;;;;;;;;;;4986549;28;20022;-72
2023/01/31 10:26:56;;;;;;;38.55;5.68;;;;;;;;;;5004005;28;20029;-72
2023/01/31 10:29:27;;;;;;;35.90;7.07;;;;;;;;;;5003704;28;20306;-73
2023/01/31 10:31:52;;;;;;;45.05;6.18;;;;;;;;;;5003983;28;20245;-72
2023/01/31 10:34:29;;;;;;;49.47;6.95;;;;;;;;;;5003819;28;20080;-72
2023/01/31 10:37:00;;;;;;;40.80;6.32;;;;;;;;;;5002218;28;20029;-73
2023/01/31 10:39:43;;;;;;;43.25;7.20;;;;;;;;;;5003750;28;20063;-72
2023/01/31 10:42:12;;;;;;;43.22;6.28;;;;;;;;;;4982697;28;20494;-71
2023/01/31 10:44:46;;;;;;;49.65;7.07;;;;;;;;;;4973406;28;20468;-72
2023/01/31 10:47:15;;;;;;;39.38;6.00;;;;;;;;;;4996893;28;20034;-71
2023/01/31 10:49:43;;;;;;;48.90;7.68;;;;;;;;;;5003617;28;20073;-72
2023/01/31 10:52:19;;;;;;;39.75;5.78;;;;;;;;;;5001956;28;20048;-72
2023/01/31 10:54:46;;;;;;;46.28;6.50;;;;;;;;;;5003708;28;20034;-74
2023/01/31 10:57:11;;;;;;;46.30;7.18;;;;;;;;;;5003056;28;20061;-73
2023/01/31 10:59:39;;;;;;;38.90;5.88;;;;;;;;;;5004140;28;20251;-77
2023/01/31 11:02:13;;;;;;;54.72;7.22;;;;;;;;;;5001219;28;20041;-75
2023/01/31 11:04:41;;;;;;;48.65;7.55;;;;;;;;;;5002894;28;20105;-75
2023/01/31 11:07:07;;;;;;;37.85;6.22;;;;;;;;;;5001413;28;20134;-75
2023/01/31 11:09:36;;;;;;;41.13;6.35;;;;;;;;;;5004190;28;20112;-76
2023/01/31 11:12:03;;;;;;;40.60;6.50;;;;;;;;;;5003682;28;20033;-76
2023/01/31 11:14:30;;;;;;;35.03;7.00;;;;;;;;;;5002286;28;20125;-75
2023/01/31 11:17:00;;;;;;;35.70;5.63;;;;;;;;;;5003513;28;20048;-74
2023/01/31 11:19:28;;;;;;;31.00;5.97;;;;;;;;;;5001731;28;20498;-74
2023/01/31 11:21:54;;;;;;;48.92;7.18;;;;;;;;;;5002528;28;20026;-75
2023/01/31 11:24:24;;;;;;;41.03;6.63;;;;;;;;;;5003627;28;20572;-74
2023/01/31 11:26:51;;;;;;;42.42;7.15;;;;;;;;;;4985148;28;20113;-75
2023/01/31 11:29:17;;;;;;;39.60;6.07;;;;;;;;;;5002965;28;20045;-74
2023/01/31 11:31:46;;;;;;;36.88;6.60;;;;;;;;;;5003630;28;20041;-73
2023/01/31 11:34:19;;;;;;;38.30;5.88;;;;;;;;;;5003007;28;20316;-75
2023/01/31 11:36:46;;;;;;;44.10;7.45;;;;;;;;;;5002935;28;20482;-75
2023/01/31 11:39:34;;;;;;;45.90;6.78;;;;;;;;;;5003535;28;20051;-73
2023/01/31 11:42:11;;;;;;;42.22;6.78;;;;;;;;;;5003571;28;20026;-76
2023/01/31 11:44:52;;;;;;;42.15;7.95;;;;;;;;;;4991193;28;20092;-75
2023/01/31 11:47:19;;;;;;;49.30;7.13;;;;;;;;;;4995032;28;20026;-75
2023/01/31 11:49:49;;;;;;;38.47;7.30;;;;;;;;;;5002810;28;20096;-74
2023/01/31 11:52:14;;;;;;;51.88;7.25;;;;;;;;;;5002617;28;20030;-74
2023/01/31 11:54:42;;;;;;;45.20;7.10;;;;;;;;;;5002734;28;20179;-74
2023/01/31 11:57:14;;;;;;;47.13;7.13;;;;;;;;;;5002526;28;20046;-74
2023/01/31 11:59:39;;;;;;;50.35;7.55;;;;;;;;;;5002711;28;20068;-74
2023/01/31 12:02:05;;;;;;;44.65;6.95;;;;;;;;;;4985265;28;20517;-73
2023/01/31 12:04:38;;;;;;;43.90;7.25;;;;;;;;;;5002326;28;20514;-74
2023/01/31 12:07:04;;;;;;;53.40;7.28;;;;;;;;;;5001579;28;20308;-75
2023/01/31 12:09:39;;;;;;;44.35;6.88;;;;;;;;;;5002103;28;20030;-75
2023/01/31 12:12:19;;;;;;;41.70;7.50;;;;;;;;;;5001154;28;20123;-73
2023/01/31 12:14:46;;;;;;;43.22;7.00;;;;;;;;;;5000718;28;20149;-73
2023/01/31 12:17:13;;;;;;;34.10;5.78;;;;;;;;;;5002679;28;20469;-73
2023/01/31 12:20:00;;;;;;;44.78;7.57;;;;;;;;;;5002747;28;20070;-73
2023/01/31 12:22:35;;;;;;;32.70;6.70;;;;;;;;;;5002200;28;20478;-75
2023/01/31 12:25:12;;;;;;;35.85;6.55;;;;;;;;;;5002764;28;20030;-73
2023/01/31 12:27:43;;;;;;;46.42;6.30;;;;;;;;;;5000574;28;20080;-76
2023/01/31 12:30:18;;;;;;;58.60;7.63;;;;;;;;;;5000916;28;20030;-74
2023/01/31 12:32:46;;;;;;;47.25;7.88;;;;;;;;;;5002325;28;20033;-74
2023/01/31 12:35:30;;;;;;;43.92;6.95;;;;;;;;;;5003070;28;20072;-74
2023/01/31 12:38:05;;;;;;;30.13;5.90;;;;;;;;;;4984777;28;20470;-74
2023/01/31 12:40:45;;;;;;;42.30;6.43;;;;;;;;;;5001425;28;20077;-74
2023/01/31 12:43:11;;;;;;;38.33;6.93;;;;;;;;;;5004156;28;20026;-76
2023/01/31 12:45:45;;;;;;;42.13;6.47;;;;;;;;;;4987896;28;20379;-73
2023/01/31 12:48:24;;;;;;;45.80;7.50;;;;;;;;;;4981520;28;20035;-74
2023/01/31 12:50:52;;;;;;;41.50;6.30;;;;;;;;;;4963884;28;20286;-71
2023/01/31 12:53:39;;;;;;;42.40;6.72;;;;;;;;;;4966756;28;20508;-71
2023/01/31 12:56:04;;;;;;;41.92;6.93;;;;;;;;;;4965202;28;20035;-71
2023/01/31 12:58:58;;;;;;;34.53;6.60;;;;;;;;;;4981212;28;20407;-70
2023/01/31 13:01:43;;;;;;;40.58;7.30;;;;;;;;;;4957647;28;20054;-71
2023/01/31 13:04:11;;;;;;;39.85;6.55;;;;;;;;;;4966895;28;20100;-71
2023/01/31 13:06:39;;;;;;;35.97;5.95;;;;;;;;;;4966850;28;20503;-71
2023/01/31 13:09:09;;;;;;;44.70;7.28;;;;;;;;;;4966575;28;20035;-70
2023/01/31 13:11:55;;;;;;;46.08;8.45;;;;;;;;;;4965105;28;20054;-71
2023/01/31 13:14:22;;;;;;;46.10;7.50;;;;;;;;;;4966258;28;20239;-76
2023/01/31 13:16:51;;;;;;;44.15;6.45;;;;;;;;;;4964659;28;20065;-73
2023/01/31 13:19:19;;;;;;;51.55;8.13;;;;;;;;;;4966735;28;20373;-75
2023/01/31 13:21:47;;;;;;;50.13;7.60;;;;;;;;;;4966452;28;20034;-74
2023/01/31 13:24:42;;;;;;;38.97;6.70;;;;;;;;;;4964737;28;20499;-73
2023/01/31 13:27:15;;;;;;;51.20;8.07;;;;;;;;;;4961648;28;20031;-74
2023/01/31 13:29:46;;;;;;;40.22;7.95;;;;;;;;;;4966679;28;20589;-76
2023/01/31 13:32:18;;;;;;;39.95;6.47;;;;;;;;;;4948534;28;20531;-74
2023/01/31 13:34:47;;;;;;;39.95;6.80;;;;;;;;;;4948317;28;20031;-74
2023/01/31 13:37:21;;;;;;;38.72;6.47;;;;;;;;;;4948192;28;20023;-73
2023/01/31 13:39:51;;;;;;;40.03;6.75;;;;;;;;;;4964422;28;20489;-74
2023/01/31 13:42:17;;;;;;;44.05;7.60;;;;;;;;;;4966445;28;20019;-74
2023/01/31 13:44:42;;;;;;;42.13;6.57;;;;;;;;;;4976478;28;20022;-74
2023/01/31 13:47:10;;;;;;;45.92;7.57;;;;;;;;;;4997338;28;20105;-74
2023/01/31 13:49:43;;;;;;;49.10;6.97;;;;;;;;;;5005500;28;20041;-73
2023/01/31 13:52:08;;;;;;;;;;;;;;;;;;5004666;28;20022;-75
2023/01/31 13:54:39;;;;;;;43.38;7.07;;;;;;;;;;5005770;28;19968;-74
2023/01/31 13:57:05;;;;;;;48.85;7.85;;;;;;;;;;5004583;28;20038;-75
2023/01/31 13:59:32;;;;;;;53.20;8.10;;;;;;;;;;5005497;28;20037;-75
2023/01/31 14:02:01;;;;;;;52.17;6.95;;;;;;;;;;5002778;28;20030;-74
2023/01/31 14:04:28;;;;;;;50.67;8.13;;;;;;;;;;5004327;28;20505;-73
2023/01/31 14:07:12;;;;;;;43.88;7.72;;;;;;;;;;5004863;28;20117;-75
2023/01/31 14:09:41;;;;;;;53.17;8.20;;;;;;;;;;5003040;28;20280;-74
2023/01/31 14:12:09;;;;;;;45.58;8.20;;;;;;;;;;5002584;28;20033;-74
2023/01/31 14:14:36;;;;;;;36.20;5.93;;;;;;;;;;5002801;28;20034;-76
2023/01/31 14:17:02;;;;;;;32.75;6.68;;;;;;;;;;5004307;28;20034;-74
2023/01/31 14:19:50;;;;;;;44.20;7.28;;;;;;;;;;5005007;28;20034;-74
2023/01/31 14:22:19;;;;;;;37.08;5.80;;;;;;;;;;5003059;28;20030;-74
2023/01/31 14:24:55;;;;;;;45.72;6.75;;;;;;;;;;5002602;28;20479;-74
2023/01/31 14:27:35;;;;;;;40.85;6.13;;;;;;;;;;5004049;28;20022;-71
2023/01/31 14:30:07;;;;;;;51.60;7.25;;;;;;;;;;5002129;28;20026;-70
2023/01/31 14:32:55;;;;;;;37.75;6.63;;;;;;;;;;5003984;28;20034;-71
2023/01/31 14:35:41;;;;;;;43.53;6.97;;;;;;;;;;5002575;28;20029;-70
2023/01/31 14:38:09;;;;;;;46.30;7.50;;;;;;;;;;5002029;28;20045;-71
2023/01/31 14:40:44;;;;;;;49.00;7.28;;;;;;;;;;5004119;28;20026;-72
2023/01/31 14:43:19;;;;;;;50.55;7.55;;;;;;;;;;5002133;28;20041;-70
2023/01/31 14:45:47;;;;;;;36.28;6.28;;;;;;;;;;4966608;28;20033;-69
2023/01/31 14:48:24;;;;;;;39.03;6.90;;;;;;;;;;5004637;28;20034;-70